createdAt,value
2023-05-01T12:38:41.304Z,2.50
2023-05-01T12:53:41.361Z,3.00
2023-05-01T13:08:42.501Z,3.00
2023-05-01T13:23:43.038Z,3.10
2023-05-01T13:38:42.856Z,4.50
2023-05-01T13:53:42.957Z,3.20
2023-05-01T14:08:43.407Z,3.80
2023-05-01T14:23:43.612Z,4.80
2023-05-01T14:38:43.684Z,3.80
2023-05-01T14:53:43.812Z,3.60
2023-05-01T15:08:44.001Z,4.00
2023-05-01T15:23:44.100Z,6.10
2023-05-01T15:38:44.133Z,6.60
2023-05-01T15:53:44.215Z,13.60
2023-05-01T16:08:44.332Z,10.90
2023-05-01T16:23:44.407Z,25.10
2023-05-01T16:38:44.551Z,98.70
2023-05-01T16:53:44.601Z,113.80
2023-05-01T17:08:44.877Z,93.50
2023-05-01T17:23:44.775Z,87.00
2023-05-01T17:38:44.972Z,16.50
2023-05-01T17:53:44.956Z,11.90
2023-05-01T18:08:45.582Z,9.60
2023-05-01T18:23:47.806Z,10.00
2023-05-01T18:38:49.792Z,5.90
2023-05-01T18:53:49.918Z,5.50
2023-05-01T19:08:49.923Z,5.50
2023-05-01T19:23:50.004Z,6.00
2023-05-01T19:38:50.192Z,6.70
2023-05-01T19:53:50.755Z,6.80
2023-05-01T20:08:50.780Z,6.50
2023-05-01T20:23:51.237Z,6.70
2023-05-01T20:38:51.109Z,7.40
2023-05-01T20:53:51.154Z,7.40
2023-05-01T21:08:51.303Z,7.50
2023-05-01T21:23:51.362Z,9.60
2023-05-01T21:38:51.523Z,9.90
2023-05-01T21:53:51.607Z,27.10
2023-05-01T22:08:51.722Z,12.70
2023-05-01T22:23:52.340Z,9.30
2023-05-01T22:38:52.418Z,7.20
2023-05-01T22:53:52.543Z,7.10
2023-05-01T23:08:53.763Z,6.30
2023-05-01T23:23:53.815Z,6.60
2023-05-01T23:38:53.886Z,6.20
2023-05-01T23:53:53.937Z,6.30
